createdAt,value
2023-02-06T00:00:47.027Z,102500.66
2023-02-06T00:03:13.970Z,102506.19
2023-02-06T00:05:40.672Z,102496.19
2023-02-06T00:08:07.344Z,102499.97
2023-02-06T00:10:34.537Z,102497.59
2023-02-06T00:13:01.139Z,102491.19
2023-02-06T00:15:35.634Z,102498.16
2023-02-06T00:18:02.479Z,102493.31
2023-02-06T00:20:29.068Z,102486.56
2023-02-06T00:22:55.649Z,102484.84
2023-02-06T00:25:22.205Z,102484.63
2023-02-06T00:27:48.791Z,102496.69
2023-02-06T00:30:15.481Z,102492.28
2023-02-06T00:32:42.135Z,102495.56
2023-02-06T00:35:08.767Z,102496.19
2023-02-06T00:37:35.396Z,102495.47
2023-02-06T00:40:05.035Z,102491.13
2023-02-06T00:42:31.548Z,102486.72
2023-02-06T00:44:58.078Z,102481.66
2023-02-06T00:47:24.659Z,102487.59
2023-02-06T00:49:51.271Z,102482.25
2023-02-06T00:52:17.830Z,102489.84
2023-02-06T00:54:44.363Z,102489.84
2023-02-06T00:57:11.034Z,102484.63
2023-02-06T00:59:37.628Z,102489.84
2023-02-06T01:02:04.311Z,102489.06
2023-02-06T01:04:30.872Z,102494.25
2023-02-06T01:06:57.483Z,102497.56
2023-02-06T01:09:24.053Z,102500.97
2023-02-06T01:11:50.596Z,102508.97
2023-02-06T01:14:17.293Z,102497.28
2023-02-06T01:16:43.855Z,102502.19
2023-02-06T01:19:10.654Z,102492.28
2023-02-06T01:21:37.439Z,102487.59
2023-02-06T01:24:04.219Z,102484.72
2023-02-06T01:26:30.784Z,102479.13
2023-02-06T01:28:57.432Z,102481.75
2023-02-06T01:31:28.275Z,102484.22
2023-02-06T01:33:56.603Z,102476.81
2023-02-06T01:36:23.771Z,102486.78
2023-02-06T01:38:50.997Z,102482.13
2023-02-06T01:41:19.585Z,102487.72
2023-02-06T01:44:07.640Z,102495.09
2023-02-06T01:46:34.543Z,102488.16
2023-02-06T01:49:02.070Z,102488.38
2023-02-06T01:51:30.521Z,102506.66
2023-02-06T01:54:02.235Z,102507.69
2023-02-06T01:56:34.115Z,102519.28
2023-02-06T01:59:03.055Z,102518.25
2023-02-06T02:01:30.229Z,102515.16
2023-02-06T02:04:04.369Z,102524.09
2023-02-06T02:06:31.358Z,102523.94
2023-02-06T02:08:58.859Z,102528.69
2023-02-06T02:11:32.863Z,102530.34
2023-02-06T02:14:00.851Z,102519.84
2023-02-06T02:16:55.852Z,102512.16
2023-02-06T02:19:34.477Z,102506.91
2023-02-06T02:22:19.374Z,102497.38
2023-02-06T02:25:17.626Z,102490.25
2023-02-06T02:28:21.845Z,102487.63
2023-02-06T02:30:54.591Z,102484.72
2023-02-06T02:33:58.543Z,102483.19
2023-02-06T02:36:49.830Z,102469.94
2023-02-06T02:39:21.702Z,102465.22
2023-02-06T02:42:16.998Z,102458.94
2023-02-06T02:44:50.655Z,102451.88
2023-02-06T02:47:21.437Z,102440.44
2023-02-06T02:49:49.098Z,102432.91
2023-02-06T02:52:15.823Z,102432.88
2023-02-06T02:54:42.463Z,102434.56
2023-02-06T02:57:14.753Z,102439.78
2023-02-06T02:59:45.475Z,102434.91
2023-02-06T03:02:21.624Z,102424.97
2023-02-06T03:04:53.587Z,102425.53
2023-02-06T03:07:38.445Z,102421.59
2023-02-06T03:10:14.109Z,102423.66
2023-02-06T03:13:02.951Z,102414.47
2023-02-06T03:15:40.038Z,102418.44
2023-02-06T03:18:19.577Z,102409.53
2023-02-06T03:20:47.975Z,102414.53
2023-02-06T03:23:19.428Z,102414.84
2023-02-06T03:25:50.895Z,102418.94
2023-02-06T03:28:23.702Z,102421.63
2023-02-06T03:30:55.183Z,102416.88
2023-02-06T03:33:26.927Z,102418.06
2023-02-06T03:35:55.223Z,102409.06
2023-02-06T03:38:24.785Z,102419.22
2023-02-06T03:40:53.409Z,102419.94
2023-02-06T03:43:22.811Z,102419.38
2023-02-06T03:45:56.301Z,102421.72
2023-02-06T03:48:37.263Z,102432.81
2023-02-06T03:51:10.092Z,102424.25
2023-02-06T03:53:38.794Z,102433.28
2023-02-06T03:56:19.390Z,102439.25
2023-02-06T03:58:45.991Z,102427.72
2023-02-06T04:01:13.665Z,102424.75
2023-02-06T04:03:40.795Z,102419.53
2023-02-06T04:06:07.660Z,102416.47
2023-02-06T04:08:34.216Z,102420.94
2023-02-06T04:11:00.764Z,102419.16
2023-02-06T04:13:27.318Z,102424.38
2023-02-06T04:15:56.210Z,102409.94
2023-02-06T04:18:24.052Z,102411.75
2023-02-06T04:20:52.401Z,102404.97
2023-02-06T04:23:19.981Z,102412.41
2023-02-06T04:25:46.882Z,102407.25
2023-02-06T04:28:14.078Z,102400.34
2023-02-06T04:30:40.823Z,102406.31
2023-02-06T04:33:07.515Z,102424.09
2023-02-06T04:35:34.323Z,102422.28
2023-02-06T04:38:01.044Z,102413.19
2023-02-06T04:40:27.663Z,102416.34
2023-02-06T04:42:54.238Z,102414.66
2023-02-06T04:45:20.820Z,102413.28
2023-02-06T04:47:50.178Z,102420.31
2023-02-06T04:50:17.799Z,102422.56
2023-02-06T04:52:44.466Z,102432.78
2023-02-06T04:55:11.119Z,102446.25
2023-02-06T04:57:37.916Z,102454.53
2023-02-06T05:00:06.564Z,102450.59
2023-02-06T05:02:39.632Z,102451.88
2023-02-06T05:05:08.182Z,102445.78
2023-02-06T05:07:35.608Z,102452.66
2023-02-06T05:10:02.481Z,102452.94
2023-02-06T05:12:29.178Z,102446.06
2023-02-06T05:14:55.938Z,102451.31
2023-02-06T05:17:22.487Z,102448.88
2023-02-06T05:19:49.066Z,102435.09
2023-02-06T05:22:15.638Z,102424.91
2023-02-06T05:24:42.222Z,102414.94
2023-02-06T05:27:08.805Z,102420.28
2023-02-06T05:29:35.337Z,102422.41
2023-02-06T05:32:01.926Z,102425.94
2023-02-06T05:34:28.500Z,102436.19
2023-02-06T05:36:55.064Z,102429.59
2023-02-06T05:39:22.033Z,102433.91
2023-02-06T05:41:48.620Z,102432.31
2023-02-06T05:44:15.190Z,102436.69
2023-02-06T05:46:41.871Z,102433.13
2023-02-06T05:49:08.440Z,102426.34
2023-02-06T05:51:35.127Z,102430.75
2023-02-06T05:54:01.760Z,102429.94
2023-02-06T05:56:28.293Z,102438.63
2023-02-06T05:58:54.888Z,102430.50
2023-02-06T06:01:21.489Z,102423.94
2023-02-06T06:03:48.094Z,102421.16
2023-02-06T06:06:14.830Z,102418.41
2023-02-06T06:08:41.412Z,102416.38
2023-02-06T06:11:08.219Z,102416.19
2023-02-06T06:13:34.856Z,102419.50
2023-02-06T06:16:01.432Z,102420.63
2023-02-06T06:18:28.088Z,102413.75
2023-02-06T06:20:54.730Z,102407.91
2023-02-06T06:23:21.332Z,102406.91
2023-02-06T06:25:48.831Z,102403.53
2023-02-06T06:28:15.442Z,102404.97
2023-02-06T06:30:42.335Z,102399.47
2023-02-06T06:33:08.864Z,102407.44
2023-02-06T06:35:35.708Z,102413.66
2023-02-06T06:38:02.385Z,102414.16
2023-02-06T06:40:29.067Z,102419.34
2023-02-06T06:42:55.633Z,102420.97
2023-02-06T06:45:22.325Z,102427.56
2023-02-06T06:47:48.932Z,102417.38
2023-02-06T06:50:15.664Z,102418.31
2023-02-06T06:52:42.273Z,102421.16
2023-02-06T06:55:08.891Z,102415.13
2023-02-06T06:57:35.517Z,102414.91
2023-02-06T07:00:02.567Z,102411.47
2023-02-06T07:02:30.339Z,102408.94
2023-02-06T07:04:57.296Z,102413.25
2023-02-06T07:07:23.977Z,102416.03
2023-02-06T07:09:50.575Z,102420.13
2023-02-06T07:12:17.925Z,102424.38
2023-02-06T07:14:44.610Z,102423.47
2023-02-06T07:17:11.202Z,102409.72
2023-02-06T07:19:37.763Z,102411.56
2023-02-06T07:22:04.466Z,102415.09
2023-02-06T07:24:31.785Z,102410.72
2023-02-06T07:27:00.993Z,102404.31
2023-02-06T07:29:28.187Z,102404.16
2023-02-06T07:31:55.025Z,102412.19
2023-02-06T07:34:21.645Z,102400.91
2023-02-06T07:36:48.243Z,102393.16
2023-02-06T07:39:14.834Z,102396.78
2023-02-06T07:41:41.393Z,102391.78
2023-02-06T07:44:08.125Z,102391.13
2023-02-06T07:46:34.854Z,102397.47
2023-02-06T07:49:01.476Z,102397.47
2023-02-06T07:51:28.230Z,102402.84
2023-02-06T07:53:55.200Z,102401.03
2023-02-06T07:56:26.668Z,102395.97
2023-02-06T07:58:54.994Z,102408.16
2023-02-06T08:01:22.989Z,102402.41
2023-02-06T08:03:53.912Z,102400.31
2023-02-06T08:06:24.247Z,102413.03
2023-02-06T08:08:51.925Z,102412.00
2023-02-06T08:11:20.541Z,102408.50
2023-02-06T08:13:48.321Z,102405.66
2023-02-06T08:16:19.556Z,102408.25
2023-02-06T08:18:46.377Z,102414.00
2023-02-06T08:21:15.965Z,102406.94
2023-02-06T08:23:43.217Z,102409.09
2023-02-06T08:26:18.960Z,102410.03
2023-02-06T08:28:47.198Z,102417.25
2023-02-06T08:31:20.856Z,102415.50
2023-02-06T08:33:48.206Z,102414.69
2023-02-06T08:36:15.713Z,102413.69
2023-02-06T08:38:42.499Z,102403.44
2023-02-06T08:41:22.179Z,102410.28
2023-02-06T08:43:50.688Z,102407.84
2023-02-06T08:46:18.902Z,102402.91
2023-02-06T08:48:46.137Z,102398.66
2023-02-06T08:51:13.500Z,102392.78
2023-02-06T08:53:40.155Z,102383.13
2023-02-06T08:56:12.128Z,102371.66
2023-02-06T08:58:39.711Z,102371.59
2023-02-06T09:01:13.787Z,102366.16
2023-02-06T09:03:41.832Z,102367.09
2023-02-06T09:06:10.286Z,102359.22
2023-02-06T09:08:38.592Z,102356.47
2023-02-06T09:11:16.158Z,102356.84
2023-02-06T09:13:44.368Z,102355.44
2023-02-06T09:16:11.981Z,102353.19
2023-02-06T09:18:38.872Z,102356.16
2023-02-06T09:21:11.417Z,102353.63
2023-02-06T09:23:43.805Z,102359.91
2023-02-06T09:26:15.414Z,102358.63
2023-02-06T09:28:42.488Z,102362.25
2023-02-06T09:31:09.875Z,102367.81
2023-02-06T09:33:40.158Z,102361.34
2023-02-06T09:36:11.800Z,102365.25
2023-02-06T09:38:43.755Z,102374.78
2023-02-06T09:41:47.566Z,102374.88
2023-02-06T09:44:27.183Z,102378.44
2023-02-06T09:47:05.099Z,102384.34
2023-02-06T09:49:46.515Z,102385.13
2023-02-06T09:52:19.142Z,102377.94
2023-02-06T09:55:12.842Z,102385.34
2023-02-06T09:57:59.612Z,102385.34
2023-02-06T10:00:44.375Z,102381.22
2023-02-06T10:03:23.103Z,102385.50
2023-02-06T10:05:58.989Z,102369.44
2023-02-06T10:08:28.448Z,102368.97
2023-02-06T10:11:02.369Z,102354.56
2023-02-06T10:13:41.110Z,102353.41
2023-02-06T10:16:37.001Z,102348.13
2023-02-06T10:19:19.181Z,102338.56
2023-02-06T10:22:00.115Z,102349.06
2023-02-06T10:24:41.421Z,102347.25
2023-02-06T10:27:13.575Z,102348.47
2023-02-06T10:29:42.656Z,102344.34
2023-02-06T10:32:46.316Z,102345.56
2023-02-06T10:35:21.847Z,102340.38
2023-02-06T10:38:15.863Z,102344.53
2023-02-06T10:41:01.179Z,102333.63
2023-02-06T10:43:35.370Z,102332.00
2023-02-06T10:46:19.904Z,102335.66
2023-02-06T10:49:02.603Z,102336.34
2023-02-06T10:51:33.789Z,102351.25
2023-02-06T10:54:04.258Z,102364.34
2023-02-06T10:56:36.851Z,102369.13
2023-02-06T10:59:25.048Z,102366.66
2023-02-06T11:02:01.326Z,102368.78
2023-02-06T11:04:37.566Z,102382.03
2023-02-06T11:07:08.971Z,102364.53
2023-02-06T11:09:36.017Z,102358.31
2023-02-06T11:12:03.576Z,102354.88
2023-02-06T11:14:37.448Z,102353.84
2023-02-06T11:17:04.010Z,102338.66
2023-02-06T11:19:44.472Z,102323.09
2023-02-06T11:22:12.301Z,102311.34
2023-02-06T11:24:57.601Z,102303.81
2023-02-06T11:27:24.272Z,102303.09
2023-02-06T11:29:52.273Z,102311.16
2023-02-06T11:32:31.104Z,102314.00
2023-02-06T11:35:01.693Z,102324.34
2023-02-06T11:37:32.565Z,102326.03
2023-02-06T11:40:17.494Z,102325.84
2023-02-06T11:42:45.671Z,102324.75
2023-02-06T11:45:40.913Z,102328.41
2023-02-06T11:48:31.537Z,102322.22
2023-02-06T11:50:58.170Z,102327.53
2023-02-06T11:53:24.709Z,102332.50
2023-02-06T11:56:18.845Z,102327.81
2023-02-06T11:58:45.997Z,102326.00
2023-02-06T12:01:22.636Z,102328.44
2023-02-06T12:03:58.874Z,102334.63
2023-02-06T12:06:30.802Z,102331.31
2023-02-06T12:09:00.331Z,102319.88
2023-02-06T12:11:51.272Z,102320.72
2023-02-06T12:14:29.577Z,102316.34
2023-02-06T12:16:57.366Z,102313.41
2023-02-06T12:19:33.696Z,102321.53
2023-02-06T12:22:22.624Z,102310.19
2023-02-06T12:24:52.593Z,102309.53
2023-02-06T12:27:39.065Z,102319.53
2023-02-06T12:30:31.085Z,102304.97
2023-02-06T12:33:10.727Z,102304.28
2023-02-06T12:35:46.116Z,102308.88
2023-02-06T12:38:43.990Z,102316.97
2023-02-06T12:41:36.749Z,102304.50
2023-02-06T12:44:19.068Z,102304.59
2023-02-06T12:46:50.015Z,102295.69
2023-02-06T12:49:30.497Z,102304.28
2023-02-06T12:52:11.916Z,102310.00
2023-02-06T12:54:48.212Z,102299.06
2023-02-06T12:57:20.010Z,102304.06
2023-02-06T13:00:05.395Z,102305.75
2023-02-06T13:03:09.757Z,102303.13
2023-02-06T13:05:41.266Z,102288.56
2023-02-06T13:08:16.168Z,102277.50
2023-02-06T13:10:43.600Z,102281.13
2023-02-06T13:13:32.973Z,102278.22
2023-02-06T13:16:00.591Z,102271.31
2023-02-06T13:18:50.682Z,102276.69
2023-02-06T13:21:29.136Z,102274.16
2023-02-06T13:24:01.775Z,102263.56
2023-02-06T13:26:51.607Z,102266.94
2023-02-06T13:29:28.832Z,102282.28
2023-02-06T13:32:19.778Z,102277.53
2023-02-06T13:34:49.648Z,102276.75
2023-02-06T13:37:35.036Z,102276.16
2023-02-06T13:40:23.414Z,102273.59
2023-02-06T13:42:59.364Z,102286.00
2023-02-06T13:45:28.074Z,102281.78
2023-02-06T13:48:06.728Z,102297.47
2023-02-06T13:50:53.525Z,102295.72
2023-02-06T13:53:50.141Z,102297.34
2023-02-06T13:56:52.190Z,102294.97
2023-02-06T13:59:29.501Z,102308.59
2023-02-06T14:01:56.412Z,102307.84
2023-02-06T14:04:28.543Z,102316.50
2023-02-06T14:07:08.957Z,102324.03
2023-02-06T14:10:28.714Z,102321.56
2023-02-06T14:13:02.040Z,102314.00
2023-02-06T14:16:03.469Z,102309.69
2023-02-06T14:18:53.356Z,102319.09
2023-02-06T14:21:44.701Z,102317.34
2023-02-06T14:24:27.655Z,102324.94
2023-02-06T14:27:06.332Z,102322.22
2023-02-06T14:29:48.105Z,102335.19
2023-02-06T14:32:41.676Z,102335.50
2023-02-06T14:35:26.543Z,102335.44
2023-02-06T14:38:41.778Z,102335.28
2023-02-06T14:41:09.480Z,102341.38
2023-02-06T14:43:39.602Z,102335.91
2023-02-06T14:46:13.105Z,102340.03
2023-02-06T14:48:46.631Z,102342.59
2023-02-06T14:51:28.921Z,102340.94
2023-02-06T14:54:02.170Z,102340.72
2023-02-06T14:56:36.610Z,102350.63
2023-02-06T14:59:18.839Z,102354.28
2023-02-06T15:01:48.575Z,102348.03
2023-02-06T15:04:16.994Z,102350.56
2023-02-06T15:06:45.027Z,102356.66
2023-02-06T15:09:27.857Z,102365.59
2023-02-06T15:11:57.908Z,102369.09
2023-02-06T15:14:27.631Z,102382.03
2023-02-06T15:16:59.165Z,102388.84
2023-02-06T15:19:28.656Z,102400.59
2023-02-06T15:22:02.426Z,102401.50
2023-02-06T15:24:57.814Z,102404.88
2023-02-06T15:27:36.863Z,102411.75
2023-02-06T15:30:20.423Z,102416.00
2023-02-06T15:32:52.989Z,102420.19
2023-02-06T15:35:28.243Z,102429.69
2023-02-06T15:37:55.405Z,102430.44
2023-02-06T15:40:39.005Z,102445.97
2023-02-06T15:43:06.730Z,102439.88
2023-02-06T15:45:37.237Z,102452.66
2023-02-06T15:48:21.110Z,102445.66
2023-02-06T15:51:02.526Z,102448.88
2023-02-06T15:53:38.951Z,102450.47
2023-02-06T15:56:16.811Z,102454.16
2023-02-06T15:58:43.416Z,102458.97
2023-02-06T16:01:20.416Z,102463.19
2023-02-06T16:03:52.138Z,102458.13
2023-02-06T16:06:19.374Z,102464.88
2023-02-06T16:08:52.674Z,102477.00
2023-02-06T16:11:37.980Z,102486.50
2023-02-06T16:14:05.713Z,102492.31
2023-02-06T16:16:32.521Z,102487.84
2023-02-06T16:18:59.404Z,102490.44
2023-02-06T16:21:31.730Z,102489.28
2023-02-06T16:24:06.193Z,102485.97
2023-02-06T16:26:39.767Z,102494.56
2023-02-06T16:29:09.105Z,102498.22
2023-02-06T16:31:42.451Z,102501.41
2023-02-06T16:34:34.517Z,102503.00
2023-02-06T16:37:01.164Z,102492.94
2023-02-06T16:39:27.730Z,102502.94
2023-02-06T16:41:54.531Z,102500.63
2023-02-06T16:44:21.612Z,102497.78
2023-02-06T16:46:48.194Z,102498.34
2023-02-06T16:49:23.663Z,102489.38
2023-02-06T16:51:53.611Z,102489.81
2023-02-06T16:54:24.672Z,102498.19
2023-02-06T16:56:52.202Z,102498.00
2023-02-06T16:59:18.835Z,102509.00
2023-02-06T17:01:45.482Z,102514.84
2023-02-06T17:04:12.130Z,102524.13
2023-02-06T17:06:39.008Z,102521.66
2023-02-06T17:09:09.156Z,102529.25
2023-02-06T17:11:37.291Z,102535.94
2023-02-06T17:14:04.484Z,102539.38
2023-02-06T17:16:31.998Z,102537.19
2023-02-06T17:18:58.667Z,102537.13
2023-02-06T17:21:27.636Z,102534.13
2023-02-06T17:23:54.301Z,102538.31
2023-02-06T17:26:22.765Z,102539.13
2023-02-06T17:28:49.892Z,102541.34
2023-02-06T17:31:16.945Z,102543.75
2023-02-06T17:33:43.758Z,102551.16
2023-02-06T17:36:19.058Z,102547.25
2023-02-06T17:38:45.700Z,102546.34
2023-02-06T17:41:12.260Z,102551.13
2023-02-06T17:43:38.898Z,102550.00
2023-02-06T17:46:06.311Z,102556.38
2023-02-06T17:48:36.723Z,102556.41
2023-02-06T17:51:05.107Z,102553.59
2023-02-06T17:53:31.678Z,102564.59
2023-02-06T17:56:03.970Z,102560.97
2023-02-06T17:58:30.561Z,102564.34
2023-02-06T18:00:57.202Z,102556.94
2023-02-06T18:03:23.859Z,102564.09
2023-02-06T18:06:00.894Z,102573.84
2023-02-06T18:08:28.642Z,102567.69
2023-02-06T18:10:56.044Z,102566.75
2023-02-06T18:13:24.460Z,102562.19
2023-02-06T18:15:53.358Z,102556.34
2023-02-06T18:18:20.035Z,102559.38
2023-02-06T18:20:46.678Z,102575.34
2023-02-06T18:23:13.859Z,102583.22
2023-02-06T18:25:43.519Z,102587.88
2023-02-06T18:28:13.937Z,102591.78
2023-02-06T18:30:42.080Z,102592.94
2023-02-06T18:33:11.297Z,102589.09
2023-02-06T18:35:45.689Z,102588.25
2023-02-06T18:38:14.235Z,102581.41
2023-02-06T18:40:43.006Z,102581.50
2023-02-06T18:43:09.661Z,102581.16
2023-02-06T18:45:38.392Z,102584.88
2023-02-06T18:48:09.117Z,102581.28
2023-02-06T18:50:39.220Z,102579.63
2023-02-06T18:53:06.076Z,102585.00
2023-02-06T18:55:35.157Z,102585.88
2023-02-06T18:58:02.588Z,102589.16
2023-02-06T19:00:29.636Z,102580.44
2023-02-06T19:02:58.013Z,102580.88
2023-02-06T19:05:24.842Z,102582.44
2023-02-06T19:07:53.100Z,102571.34
2023-02-06T19:10:20.829Z,102571.66
2023-02-06T19:12:47.692Z,102571.81
2023-02-06T19:15:15.616Z,102576.50
2023-02-06T19:17:42.776Z,102571.59
2023-02-06T19:20:11.046Z,102553.69
2023-02-06T19:22:38.571Z,102561.59
2023-02-06T19:25:10.213Z,102560.53
2023-02-06T19:27:38.522Z,102577.50
2023-02-06T19:30:07.825Z,102581.22
2023-02-06T19:32:35.023Z,102579.56
2023-02-06T19:35:03.103Z,102583.88
2023-02-06T19:37:30.978Z,102589.63
2023-02-06T19:39:57.763Z,102598.31
2023-02-06T19:42:24.418Z,102604.09
2023-02-06T19:44:53.951Z,102607.09
2023-02-06T19:47:21.021Z,102622.78
2023-02-06T19:49:50.913Z,102649.50
2023-02-06T19:52:17.589Z,102662.81
2023-02-06T19:54:44.272Z,102660.09
2023-02-06T19:57:11.017Z,102674.25
2023-02-06T19:59:37.687Z,102668.47
2023-02-06T20:02:04.424Z,102673.25
2023-02-06T20:04:34.663Z,102667.78
2023-02-06T20:07:02.029Z,102662.06
2023-02-06T20:09:29.403Z,102671.34
2023-02-06T20:11:56.804Z,102667.66
2023-02-06T20:14:24.727Z,102679.72
2023-02-06T20:16:51.650Z,102686.47
2023-02-06T20:19:27.152Z,102698.41
2023-02-06T20:21:59.120Z,102711.97
2023-02-06T20:24:30.223Z,102716.88
2023-02-06T20:27:00.764Z,102721.44
2023-02-06T20:29:30.711Z,102718.59
2023-02-06T20:31:57.533Z,102721.41
2023-02-06T20:34:25.502Z,102726.81
2023-02-06T20:36:55.252Z,102718.09
2023-02-06T20:39:22.057Z,102722.72
2023-02-06T20:41:50.354Z,102732.34
2023-02-06T20:44:17.996Z,102728.66
2023-02-06T20:46:45.275Z,102731.63
2023-02-06T20:49:17.810Z,102723.06
2023-02-06T20:51:44.761Z,102727.72
2023-02-06T20:54:12.051Z,102721.72
2023-02-06T20:56:39.918Z,102720.78
2023-02-06T20:59:07.962Z,102710.38
2023-02-06T21:01:35.163Z,102705.41
2023-02-06T21:04:05.454Z,102715.56
2023-02-06T21:06:32.586Z,102701.22
2023-02-06T21:09:03.130Z,102702.06
2023-02-06T21:11:34.121Z,102694.59
2023-02-06T21:14:02.551Z,102699.16
2023-02-06T21:16:32.932Z,102700.03
2023-02-06T21:19:00.711Z,102706.72
2023-02-06T21:21:27.746Z,102709.91
2023-02-06T21:23:58.188Z,102707.19
2023-02-06T21:26:25.791Z,102696.94
2023-02-06T21:28:52.994Z,102710.88
2023-02-06T21:31:23.400Z,102713.00
2023-02-06T21:33:51.925Z,102716.53
2023-02-06T21:36:21.038Z,102704.19
2023-02-06T21:38:48.109Z,102703.19
2023-02-06T21:41:18.185Z,102710.34
2023-02-06T21:43:45.756Z,102708.03
2023-02-06T21:46:13.272Z,102698.03
2023-02-06T21:48:41.130Z,102707.47
2023-02-06T21:51:13.480Z,102702.88
2023-02-06T21:53:41.598Z,102710.16
2023-02-06T21:56:13.734Z,102713.03
2023-02-06T21:58:40.333Z,102712.59
2023-02-06T22:01:08.917Z,102726.22
2023-02-06T22:03:36.089Z,102721.47
2023-02-06T22:06:11.737Z,102722.47
2023-02-06T22:08:40.926Z,102711.72
2023-02-06T22:11:16.849Z,102711.75
2023-02-06T22:13:44.254Z,102711.81
2023-02-06T22:16:13.181Z,102704.09
2023-02-06T22:18:41.016Z,102706.50
2023-02-06T22:21:16.719Z,102705.75
2023-02-06T22:23:45.123Z,102708.91
2023-02-06T22:26:14.158Z,102711.03
2023-02-06T22:28:41.705Z,102719.63
2023-02-06T22:31:12.182Z,102722.56
2023-02-06T22:33:38.900Z,102729.97
2023-02-06T22:36:07.739Z,102721.50
2023-02-06T22:38:34.813Z,102716.13
2023-02-06T22:41:03.729Z,102717.75
2023-02-06T22:43:32.730Z,102723.50
2023-02-06T22:45:59.562Z,102724.72
2023-02-06T22:48:28.858Z,102708.97
2023-02-06T22:50:55.582Z,102709.00
2023-02-06T22:53:32.688Z,102714.03
2023-02-06T22:56:23.329Z,102725.13
2023-02-06T22:58:51.183Z,102725.84
2023-02-06T23:01:20.462Z,102724.00
2023-02-06T23:03:47.736Z,102725.75
2023-02-06T23:06:15.767Z,102730.94
2023-02-06T23:08:43.516Z,102723.63
2023-02-06T23:11:12.115Z,102714.41
2023-02-06T23:13:39.540Z,102716.38
2023-02-06T23:16:07.476Z,102710.22
2023-02-06T23:18:35.117Z,102711.09
2023-02-06T23:21:10.864Z,102708.56
2023-02-06T23:23:39.053Z,102713.78
2023-02-06T23:26:11.127Z,102722.06
2023-02-06T23:28:38.711Z,102729.06
2023-02-06T23:31:06.485Z,102729.78
2023-02-06T23:33:33.884Z,102732.88
2023-02-06T23:36:06.773Z,102729.59
2023-02-06T23:38:33.608Z,102735.38
2023-02-06T23:41:12.866Z,102736.94
2023-02-06T23:43:39.762Z,102734.84
2023-02-06T23:46:12.219Z,102737.56
2023-02-06T23:48:39.499Z,102741.34
2023-02-06T23:51:06.492Z,102737.41
2023-02-06T23:53:33.339Z,102735.19
2023-02-06T23:56:00.118Z,102737.97
2023-02-06T23:58:27.075Z,102737.09
